Time;durP1;ratioP1;P1;durP2;ratioP2;P2;SDS_P1;SDS_P2;PMS_P1;PMS_P2;Temp;Humidity;BMP_temperature;BMP_pressure;BME280_temperature;BME280_humidity;BME280_pressure;Samples;Min_cycle;Max_cycle;Signal;HPM_P1;HPM_P2
2023/06/21 00:00:22;;;;;;;;;8.67;7.67;;;;;21.66;98.92;101127.78;5033303;28;45699;-83
2023/06/21 00:03:25;;;;;;;;;8.67;7.67;;;;;22.07;98.89;101195.00;5025457;28;46372;-84
2023/06/21 00:06:20;;;;;;;;;10.00;8.33;;;;;21.79;97.76;101164.25;5048595;28;45489;-82
2023/06/21 00:09:22;;;;;;;;;7.33;7.33;;;;;21.68;97.60;101140.13;5055884;28;45408;-83
2023/06/21 00:15:55;;;;;;;;;9.00;9.00;;;;;21.91;96.51;101200.06;5060738;28;45791;-81
2023/06/21 00:18:59;;;;;;;;;7.67;6.33;;;;;21.69;96.86;101149.88;5054599;28;45494;-81
2023/06/21 00:25:35;;;;;;;;;;;;;;;;;;;;;
2023/06/21 00:28:25;;;;;;;;;;;;;;;;;;;;;
2023/06/21 00:31:08;;;;;;;;;5.00;5.00;;;;;21.32;96.78;101104.81;4968202;28;72059;-83
2023/06/21 00:34:23;;;;;;;;;5.67;4.67;;;;;21.22;99.47;101099.38;4941415;28;45538;-83
2023/06/21 00:37:11;;;;;;;;;7.00;7.00;;;;;21.48;96.76;101153.59;4984084;28;45632;-82
2023/06/21 00:40:27;;;;;;;;;;;;;;;;;;;;;
2023/06/21 00:43:20;;;;;;;;;;;;;;;;;;;;;
2023/06/21 00:46:12;;;;;;;;;6.33;6.33;;;;;21.33;97.79;101130.72;5003436;28;68354;-83
2023/06/21 00:49:05;;;;;;;;;8.33;8.33;;;;;21.22;98.13;101137.91;5023072;28;45616;-82
2023/06/21 00:55:07;;;;;;;;;6.00;6.00;;;;;21.11;97.80;101129.03;4994336;28;45564;-83
2023/06/21 00:58:00;;;;;;;;;;;;;;;;;;;;;
2023/06/21 01:00:50;;;;;;;;;8.67;8.33;;;;;21.07;98.11;101120.34;5008671;28;72530;-82
2023/06/21 01:04:00;;;;;;;;;4.00;3.00;;;;;21.12;99.41;101136.97;5016754;28;46357;-83
2023/06/21 01:06:55;;;;;;;;;;;;;;;;;;;;;
2023/06/21 01:10:08;;;;;;;;;5.00;5.00;;;;;21.68;99.63;101228.97;4982340;28;67402;-83
2023/06/21 01:13:23;;;;;;;;;5.00;4.67;;;;;21.67;98.98;101226.41;5016007;28;45719;-82
2023/06/21 01:16:39;;;;;;;;;5.00;4.33;;;;;21.63;99.64;101223.13;5063078;28;45378;-82
2023/06/21 01:20:05;;;;;;;;;6.00;6.00;;;;;20.98;99.83;101145.34;5064963;28;45291;-82
2023/06/21 01:23:01;;;;;;;;;5.00;5.00;;;;;21.56;98.99;101234.56;5017849;28;45594;-83
2023/06/21 01:25:51;;;;;;;;;8.00;5.00;;;;;21.54;97.86;101239.22;5037282;28;45473;-82
2023/06/21 01:28:58;;;;;;;;;4.00;4.00;;;;;21.54;100.00;101239.22;5066335;28;46424;-82
2023/06/21 01:31:43;;;;;;;;;9.00;5.00;;;;;20.88;99.04;101147.09;5038223;28;45347;-82
2023/06/21 01:34:27;;;;;;;;;8.33;5.67;;;;;21.07;99.74;101184.88;5047908;28;45432;-82
2023/06/21 01:37:08;;;;;;;;;6.00;4.00;;;;;20.98;98.46;101160.59;5036305;28;45577;-83
2023/06/21 01:40:10;;;;;;;;;4.67;4.67;;;;;20.95;100.00;101171.63;5039525;28;45997;-82
2023/06/21 01:42:44;;;;;;;;;5.67;5.00;;;;;20.84;100.00;101147.50;5028738;28;45706;-82
2023/06/21 01:52:14;;;;;;;;;;;;;;;;;;;;;
2023/06/21 01:55:05;;;;;;;;;6.00;3.67;;;;;20.77;100.00;101174.06;5060593;28;73841;-82
2023/06/21 01:57:47;;;;;;;;;4.67;4.67;;;;;20.97;100.00;101213.56;5062679;28;45445;-82
2023/06/21 02:00:33;;;;;;;;;;;;;;;;;;;;;
2023/06/21 02:03:27;;;;;;;;;6.00;6.00;;;;;20.68;100.00;101181.03;5019883;28;75189;-82
2023/06/21 02:06:16;;;;;;;;;8.67;6.00;;;;;21.26;100.00;101283.78;5041216;28;45477;-82
2023/06/21 02:09:01;;;;;;;;;5.33;5.33;;;;;20.87;100.00;101214.47;5037575;28;46396;-82
2023/06/21 02:11:44;;;;;;;;;5.33;5.00;;;;;21.24;100.00;101296.47;5044747;28;45479;-82
2023/06/21 02:14:43;;;;;;;;;4.67;4.00;;;;;20.57;100.00;101199.91;5037721;28;45472;-82
2023/06/21 02:17:55;;;;;;;;;6.00;5.00;;;;;20.57;100.00;101201.72;5044600;28;45571;-82
2023/06/21 02:20:45;;;;;;;;;4.00;4.00;;;;;20.77;100.00;101226.00;5035306;28;45318;-83
2023/06/21 02:24:06;;;;;;;;;4.00;4.00;;;;;20.58;100.00;101203.44;5037841;28;45484;-83
2023/06/21 02:33:03;;;;;;;;;5.33;4.00;;;;;20.55;100.00;101193.78;5048132;28;45604;-83
2023/06/21 02:35:56;;;;;;;;;4.00;2.67;;;;;20.59;100.00;101223.94;5031205;28;45577;-83
2023/06/21 02:38:26;;;;;;;;;6.00;3.00;;;;;20.60;100.00;101233.72;5040362;28;45538;-83
2023/06/21 02:41:07;;;;;;;;;4.00;4.00;;;;;20.40;100.00;101195.06;5049585;28;45826;-83
2023/06/21 02:47:00;;;;;;;;;5.00;5.00;;;;;20.74;100.00;101263.84;5052472;28;45718;-84
2023/06/21 02:50:17;;;;;;;;;5.67;5.00;;;;;20.95;100.00;101287.28;5039293;28;46298;-84
2023/06/21 02:53:21;;;;;;;;;5.00;5.00;;;;;20.53;100.00;101222.63;5057054;27;45443;-83
2023/06/21 02:56:07;;;;;;;;;5.00;5.00;;;;;20.78;100.00;101284.13;5046404;28;45503;-84
2023/06/21 02:59:32;;;;;;;;;4.67;4.00;;;;;20.87;100.00;101292.44;5043997;27;45497;-83
2023/06/21 03:05:46;;;;;;;;;0.00;0.00;;;;;20.78;100.00;101302.09;4969852;28;45357;-83
2023/06/21 03:12:20;;;;;;;;;4.00;4.00;;;;;20.26;100.00;101231.09;5063687;28;45758;-82
2023/06/21 03:18:07;;;;;;;;;5.67;4.00;;;;;20.01;100.00;101196.41;5070774;27;45480;-82
2023/06/21 03:21:10;;;;;;;;;4.33;3.33;;;;;20.01;100.00;101211.66;5046717;28;45725;-83
2023/06/21 03:27:09;;;;;;;;;8.67;5.67;;;;;20.42;100.00;101286.28;5043610;28;46068;-83
2023/06/21 03:33:06;;;;;;;;;5.00;3.67;;;;;20.57;100.00;101325.34;5072120;27;46124;-82
2023/06/21 03:36:29;;;;;;;;;6.00;5.33;;;;;20.32;100.00;101271.88;5077918;27;45634;-82
2023/06/21 03:38:52;;;;;;;;;5.33;5.33;;;;;20.52;100.00;101311.41;5068805;27;45633;-82
2023/06/21 03:41:36;;;;;;;;;6.00;6.00;;;;;20.35;100.00;101299.38;5072449;28;46362;-82
2023/06/21 03:44:27;;;;;;;;;4.33;4.33;;;;;19.81;100.00;101207.03;5041792;28;45333;-81
2023/06/21 03:48:05;;;;;;;;;5.33;3.67;;;;;20.10;100.00;101261.94;5045298;28;45527;-82
2023/06/21 03:50:56;;;;;;;;;4.33;4.33;;;;;20.14;100.00;101288.47;5084434;27;46417;-82
2023/06/21 03:53:43;;;;;;;;;7.33;5.00;;;;;20.13;100.00;101304.69;5027533;28;46078;-82
2023/06/21 03:56:23;;;;;;;;;6.67;5.67;;;;;19.77;100.00;101265.47;5027817;28;45506;-81
2023/06/21 03:59:46;;;;;;;;;5.00;5.00;;;;;19.80;100.00;101267.91;5050159;28;45766;-81
2023/06/21 04:02:46;;;;;;;;;4.67;4.67;;;;;19.85;100.00;101289.91;5021738;28;45789;-81
2023/06/21 04:05:55;;;;;;;;;4.67;4.67;;;;;19.71;100.00;101285.59;5055314;28;45438;-82
2023/06/21 04:09:01;;;;;;;;;5.67;5.00;;;;;19.76;100.00;101304.88;5026548;28;45582;-81
2023/06/21 04:12:04;;;;;;;;;6.33;4.00;;;;;19.79;100.00;101313.69;4992741;28;46154;-82
2023/06/21 04:15:03;;;;;;;;;6.33;4.33;;;;;19.63;100.00;101298.75;5047099;28;45568;-82
2023/06/21 04:17:42;;;;;;;;;5.00;5.00;;;;;19.61;100.00;101299.84;5056546;28;45479;-82
2023/06/21 04:20:23;;;;;;;;;6.33;6.33;;;;;19.99;100.00;101361.31;5054038;28;45575;-81
2023/06/21 04:23:11;;;;;;;;;;;;;;;;;;;;;
2023/06/21 04:25:59;;;;;;;;;5.67;5.33;;;;;19.86;100.00;101365.94;5052161;28;75170;-83
2023/06/21 04:31:56;;;;;;;;;5.67;5.33;;;;;19.62;100.00;101329.25;5051119;28;45760;-79
2023/06/21 04:34:33;;;;;;;;;5.00;5.00;;;;;19.56;100.00;101318.13;5051157;28;45422;-80
2023/06/21 04:40:52;;;;;;;;;7.33;6.00;;;;;19.57;100.00;101323.38;5027596;28;45372;-81
2023/06/21 04:44:02;;;;;;;;;6.33;6.33;;;;;20.20;100.00;101429.47;4982755;28;45538;-81
2023/06/21 04:46:50;;;;;;;;;8.67;7.33;;;;;19.73;100.00;101384.81;5047854;28;45573;-81
2023/06/21 04:49:53;;;;;;;;;7.00;6.33;;;;;20.23;100.00;101469.53;5036931;28;46928;-81
2023/06/21 04:59:19;;;;;;;;;4.33;4.33;;;;;20.08;100.00;101417.00;5028689;28;45551;-81
2023/06/21 05:02:20;;;;;;;;;7.00;6.67;;;;;19.85;100.00;101380.31;5035754;28;45995;-83
2023/06/21 05:05:14;;;;;;;;;8.67;5.33;;;;;19.80;100.00;101369.91;5028011;28;46249;-78
2023/06/21 05:08:04;;;;;;;;;12.00;8.00;;;;;20.42;100.00;101448.34;5056531;28;45431;-82
2023/06/21 05:10:53;;;;;;;;;6.00;6.00;;;;;20.07;100.00;101400.03;5057206;28;45430;-80
2023/06/21 05:13:40;;;;;;;;;3.33;2.67;;;;;20.58;100.00;101464.97;5041332;28;46637;-78
2023/06/21 05:16:26;;;;;;;;;5.33;5.33;;;;;20.38;100.00;101425.41;5043408;28;45341;-79
2023/06/21 05:19:12;;;;;;;;;;;;;;;;;;;;;
2023/06/21 05:22:31;;;;;;;;;7.00;7.00;;;;;20.81;100.00;101481.16;5053832;28;71849;-77
2023/06/21 05:25:08;;;;;;;;;;;;;;;;;;;;;
2023/06/21 05:28:14;;;;;;;;;6.00;6.00;;;;;20.91;100.00;101493.72;5061128;28;73953;-82
2023/06/21 05:30:57;;;;;;;;;8.67;7.67;;;;;20.42;100.00;101383.03;4962125;28;45575;-79
2023/06/21 05:33:45;;;;;;;;;5.67;5.67;;;;;20.47;100.00;101384.38;5032116;28;45500;-79
2023/06/21 05:36:55;;;;;;;;;;;;;;;;;;;;;
2023/06/21 05:40:00;;;;;;;;;8.33;7.67;;;;;20.64;100.00;101397.31;5052367;28;72671;-81
2023/06/21 05:43:01;;;;;;;;;9.00;8.67;;;;;21.06;100.00;101454.88;5043032;28;45666;-84
2023/06/21 05:46:04;;;;;;;;;9.67;8.33;;;;;21.02;100.00;101442.63;5045647;28;45433;-85
2023/06/21 05:48:52;;;;;;;;;10.33;8.67;;;;;20.92;100.00;101408.53;5036380;28;45709;-85
2023/06/21 05:51:59;;;;;;;;;;;;;;;;;;;;;
2023/06/21 05:55:09;;;;;;;;;10.33;9.00;;;;;21.36;100.00;101445.31;5075363;27;67689;-83
2023/06/21 05:58:02;;;;;;;;;9.00;7.00;;;;;21.07;100.00;101393.88;5056242;28;45325;-84
2023/06/21 06:00:44;;;;;;;;;9.33;8.33;;;;;21.42;100.00;101444.81;5062963;28;46446;-83
2023/06/21 06:03:23;;;;;;;;;8.67;8.67;;;;;21.50;100.00;101459.34;5057140;28;45507;-84
2023/06/21 06:06:26;;;;;;;;;;;;;;;;;;;;;
2023/06/21 06:09:28;;;;;;;;;7.00;6.00;;;;;21.42;100.00;101428.66;5076783;28;72884;-82
2023/06/21 06:12:33;;;;;;;;;11.00;9.33;;;;;21.94;100.00;101503.31;5061017;28;46272;-83
2023/06/21 06:15:25;;;;;;;;;12.00;9.33;;;;;21.89;100.00;101474.03;5079015;28;45363;-83
2023/06/21 06:18:27;;;;;;;;;9.00;8.00;;;;;21.56;100.00;101406.84;5051270;28;45518;-84
2023/06/21 06:25:07;;;;;;;;;;;;;;;;;;;;;
2023/06/21 06:28:09;;;;;;;;;6.00;6.00;;;;;22.00;96.34;101441.69;5072310;27;72320;-84
2023/06/21 06:30:53;;;;;;;;;8.33;8.33;;;;;21.79;97.53;101412.00;4972126;28;45689;-84
2023/06/21 06:34:17;;;;;;;;;10.33;10.33;;;;;21.88;98.65;101399.59;4998924;28;45645;-84
2023/06/21 06:40:37;;;;;;;;;8.67;8.00;;;;;22.06;96.51;101406.13;5026148;28;45559;-85
2023/06/21 06:43:24;;;;;;;;;8.33;7.00;;;;;22.74;93.73;101501.81;5005593;28;45543;-86
2023/06/21 06:50:07;;;;;;;;;10.00;7.67;;;;;22.49;93.45;101423.97;4971877;28;46683;-85
2023/06/21 06:53:20;;;;;;;;;6.00;6.00;;;;;22.63;92.76;101440.69;4977833;28;45485;-85
2023/06/21 06:56:36;;;;;;;;;8.33;7.00;;;;;23.08;88.03;101486.19;5017382;28;45570;-85
2023/06/21 06:59:38;;;;;;;;;6.33;5.67;;;;;22.99;87.82;101468.97;5033638;28;45502;-86
2023/06/21 07:02:44;;;;;;;;;;;;;;;;;;;;;
2023/06/21 07:08:55;;;;;;;;;;;;;;;;;;;;;
2023/06/21 07:15:17;;;;;;;;;5.00;5.00;;;;;23.69;81.29;101514.00;5021427;28;46210;-85
2023/06/21 07:21:50;;;;;;;;;;;;;;;;;;;;;
2023/06/21 07:25:26;;;;;;;;;4.33;4.33;;;;;23.69;76.26;101460.78;5037633;28;72695;-84
2023/06/21 07:28:19;;;;;;;;;8.33;4.00;;;;;24.18;76.03;101535.53;5000252;28;45741;-85
2023/06/21 07:31:36;;;;;;;;;;;;;;;;;;;;;
2023/06/21 07:34:39;;;;;;;;;5.00;4.00;;;;;23.82;73.40;101437.06;4998355;28;45679;-85
2023/06/21 07:37:58;;;;;;;;;4.33;3.00;;;;;23.88;73.25;101459.13;4979719;28;45503;-84
2023/06/21 07:47:42;;;;;;;;;4.67;4.67;;;;;24.70;73.12;101536.06;4957568;28;45507;-85
2023/06/21 07:54:14;;;;;;;;;4.00;3.00;;;;;24.66;74.14;101458.91;4944071;28;46256;-84
2023/06/21 07:57:37;;;;;;;;;;;;;;;;;;;;;
2023/06/21 08:00:42;;;;;;;;;5.00;5.00;;;;;24.86;69.78;101438.91;5052792;28;67563;-84
2023/06/21 08:07:00;;;;;;;;;;;;;;;;;;;;;
2023/06/21 08:10:07;;;;;;;;;3.00;3.00;;;;;25.41;66.69;101518.31;5043976;28;73281;-84
2023/06/21 08:16:13;;;;;;;;;6.00;5.00;;;;;25.81;67.51;101539.63;5024006;28;45437;-82
2023/06/21 08:19:19;;;;;;;;;;;;;;;;;;;;;
2023/06/21 08:22:41;;;;;;;;;4.00;4.00;;;;;26.21;65.33;101556.34;5056422;28;72235;-81
2023/06/21 08:25:59;;;;;;;;;5.33;3.67;;;;;26.35;64.09;101561.22;4946837;28;45494;-82
2023/06/21 08:28:59;;;;;;;;;6.33;4.00;;;;;26.07;65.29;101482.78;5044793;28;45439;-83
2023/06/21 08:34:54;;;;;;;;;4.00;4.00;;;;;26.32;65.29;101514.56;5061452;28;45522;-82
2023/06/21 08:41:00;;;;;;;;;3.67;3.00;;;;;26.90;64.38;101564.56;5052787;28;45599;-83
2023/06/21 08:44:20;;;;;;;;;;;;;;;;;;;;;
2023/06/21 08:47:02;;;;;;;;;4.33;4.00;;;;;26.57;63.35;101456.75;5043866;28;72633;-81
2023/06/21 08:53:23;;;;;;;;;;;;;;;;;;;;;
2023/06/21 08:56:13;;;;;;;;;;;;;;;;;;;;;
2023/06/21 08:59:31;;;;;;;;;3.00;3.00;;;;;27.73;61.74;101516.78;5072223;28;72808;-82
2023/06/21 09:02:47;;;;;;;;;5.00;5.00;;;;;27.86;61.79;101487.22;5030521;27;45501;-81
2023/06/21 09:06:13;;;;;;;;;3.00;3.00;;;;;28.15;57.17;101484.06;4973127;28;45624;-82
2023/06/21 09:09:44;;;;;;;;;4.00;4.00;;;;;28.41;60.71;101490.16;5007381;28;45530;-83
2023/06/21 09:12:29;;;;;;;;;;;;;;;;;;;;;
2023/06/21 09:15:32;;;;;;;;;;;;;;;;;;;;;
2023/06/21 09:18:45;;;;;;;;;;;;;;;;;;;;;
2023/06/21 09:21:31;;;;;;;;;4.00;3.67;;;;;28.14;55.51;101470.63;5052090;28;76407;-83
2023/06/21 09:27:48;;;;;;;;;6.33;5.00;;;;;28.23;56.78;101552.09;5072877;27;45452;-82
2023/06/21 09:30:53;;;;;;;;;5.00;3.33;;;;;28.00;55.33;101472.13;5063495;28;45414;-82
2023/06/21 09:33:56;;;;;;;;;5.00;3.00;;;;;28.71;55.87;101556.69;5022056;28;45691;-81
2023/06/21 09:36:40;;;;;;;;;;;;;;;;;;;;;
2023/06/21 09:39:53;;;;;;;;;;;;;;;;;;;;;
2023/06/21 09:42:58;;;;;;;;;3.00;3.00;;;;;28.68;57.32;101490.84;5075266;28;72448;-81
2023/06/21 09:45:59;;;;;;;;;5.00;4.67;;;;;28.81;53.74;101472.09;5072755;28;47104;-81
2023/06/21 09:49:16;;;;;;;;;5.00;4.00;;;;;28.91;55.55;101502.72;5061537;28;45256;-82
2023/06/21 09:52:31;;;;;;;;;3.33;3.00;;;;;28.29;55.43;101494.25;5056641;28;45445;-83
2023/06/21 09:59:22;;;;;;;;;4.00;4.00;;;;;27.66;53.96;101491.25;5066305;28;46942;-85
2023/06/21 10:02:52;;;;;;;;;5.00;5.00;;;;;28.23;54.26;101575.72;4979389;28;45399;-81
2023/06/21 10:05:21;;;;;;;;;2.67;2.00;;;;;27.98;56.27;101465.16;5032434;28;45464;-81
2023/06/21 10:08:22;;;;;;;;;5.00;4.00;;;;;28.25;54.64;101479.28;5059759;28;45282;-82
2023/06/21 10:12:00;;;;;;;;;;;;;;;;;;;;;
2023/06/21 10:15:18;;;;;;;;;7.00;6.00;;;;;28.68;54.64;101532.53;5079711;27;71439;-82
2023/06/21 10:17:52;;;;;;;;;3.67;3.67;;;;;29.11;52.70;101553.06;5071307;28;45303;-81
2023/06/21 10:20:46;;;;;;;;;4.67;3.67;;;;;29.44;52.71;101551.09;5067507;27;45558;-82
2023/06/21 10:23:55;;;;;;;;;;;;;;;;;;;;;
2023/06/21 10:26:37;;;;;;;;;6.33;4.67;;;;;29.52;53.83;101480.16;5082171;27;72668;-81
2023/06/21 10:32:44;;;;;;;;;6.00;4.00;;;;;29.74;50.50;101484.84;5067496;28;45416;-82
2023/06/21 10:36:26;;;;;;;;;3.67;3.67;;;;;29.98;49.17;101550.16;5059282;27;46490;-81
2023/06/21 10:39:20;;;;;;;;;5.67;4.67;;;;;29.48;47.90;101479.69;5030635;28;45595;-82
2023/06/21 10:42:35;;;;;;;;;;;;;;;;;;;;;
2023/06/21 10:56:07;;;;;;;;;3.00;3.00;;;;;30.01;47.65;101550.84;4988486;28;45552;-79
2023/06/21 11:01:44;;;;;;;;;4.00;4.00;;;;;29.80;47.43;101510.53;4987276;28;47533;-81
2023/06/21 11:04:41;;;;;;;;;3.33;3.00;;;;;29.77;45.93;101480.91;4975151;28;45485;-81
2023/06/21 11:07:44;;;;;;;;;5.33;4.00;;;;;29.95;45.92;101486.91;4992360;28;45566;-81
2023/06/21 11:13:59;;;;;;;;;5.00;3.00;;;;;30.42;46.77;101486.75;4923697;28;46915;-80
2023/06/21 11:17:14;;;;;;;;;3.67;3.67;;;;;31.01;47.29;101534.16;4928928;28;46552;-81
2023/06/21 11:20:27;;;;;;;;;4.33;3.00;;;;;30.86;46.99;101465.78;4982225;28;45684;-82
2023/06/21 11:27:25;;;;;;;;;3.00;3.00;;;;;30.86;43.35;101462.19;5080295;27;45400;-81
2023/06/21 11:30:14;;;;;;;;;5.00;5.00;;;;;30.31;43.50;101476.22;4987055;28;45676;-81
2023/06/21 11:41:07;;;;;;;;;;;;;;;;;;;;;
2023/06/21 11:47:44;;;;;;;;;;;;;;;;;;;;;
2023/06/21 11:58:06;;;;;;;;;4.00;2.50;;;;;29.67;47.25;101434.78;4934086;28;45470;-82
2023/06/21 12:01:01;;;;;;;;;3.00;3.00;;;;;30.34;49.56;101460.31;4930473;28;45309;-80
2023/06/21 12:04:04;;;;;;;;;4.33;4.00;;;;;31.02;42.60;101527.66;4915212;28;45511;-83
2023/06/21 12:06:56;;;;;;;;;5.00;4.00;;;;;30.26;43.34;101444.03;4921813;28;45545;-81
2023/06/21 12:10:15;;;;;;;;;5.00;3.67;;;;;30.45;46.62;101459.06;4960263;28;45504;-87
2023/06/21 12:13:26;;;;;;;;;4.00;4.00;;;;;30.91;44.19;101446.97;4917643;28;45439;-86
2023/06/21 12:16:21;;;;;;;;;2.67;2.67;;;;;31.37;45.12;101515.09;4856666;29;45510;-83
2023/06/21 12:22:45;;;;;;;;;;;;;;;;;;;;;
2023/06/21 12:26:19;;;;;;;;;;;;;;;;;;;;;
2023/06/21 12:29:28;;;;;;;;;;;;;;;;;;;;;
2023/06/21 12:39:25;;;;;;;;;;;;;;;;;;;;;
2023/06/21 12:42:20;;;;;;;;;3.33;3.33;;;;;32.50;40.80;101516.16;4860338;29;72254;-87
2023/06/21 12:45:26;;;;;;;;;3.00;3.00;;;;;32.60;40.72;101485.69;4913226;28;45723;-80
2023/06/21 12:48:44;;;;;;;;;;;;;;;;;;;;;
2023/06/21 13:09:51;;;;;;;;;2.67;2.67;;;;;33.03;39.20;101443.41;4873719;29;45314;-82
2023/06/21 13:15:38;;;;;;;;;5.67;4.67;;;;;33.10;41.10;101471.72;4904562;28;45629;-81
2023/06/21 13:18:24;;;;;;;;;;;;;;;;;;;;;
2023/06/21 13:24:50;;;;;;;;;;;;;;;;;;;;;
2023/06/21 13:28:06;;;;;;;;;5.33;4.33;;;;;34.37;38.51;101512.03;4934332;28;72045;-80
2023/06/21 13:34:44;;;;;;;;;4.00;4.00;;;;;33.93;38.87;101487.03;4998026;28;45675;-82
2023/06/21 13:38:13;;;;;;;;;;;;;;;;;;;;;
2023/06/21 13:45:30;;;;;;;;;;;;;;;;;;;;;
2023/06/21 13:48:17;;;;;;;;;7.00;4.33;;;;;32.58;37.80;101457.66;4907277;28;72185;-81
2023/06/21 13:51:43;;;;;;;;;4.33;4.33;;;;;32.11;38.07;101445.47;4935445;28;45563;-81
2023/06/21 13:55:02;;;;;;;;;5.00;5.00;;;;;33.23;44.91;101517.56;4861783;29;45732;-80
2023/06/21 14:05:27;;;;;;;;;;;;;;;;;;;;;
2023/06/21 14:12:20;;;;;;;;;4.00;4.00;;;;;32.56;39.63;101492.63;4890467;28;45577;-80
2023/06/21 14:18:07;;;;;;;;;7.67;4.33;;;;;31.53;40.27;101440.22;4932016;28;45563;-77
2023/06/21 14:20:51;;;;;;;;;4.33;4.33;;;;;31.39;39.05;101461.91;4976092;28;45529;-77
2023/06/21 14:27:48;;;;;;;;;4.00;4.00;;;;;31.17;42.90;101429.25;4982329;28;45602;-78
2023/06/21 14:31:06;;;;;;;;;4.33;4.33;;;;;31.33;40.06;101500.09;4997738;28;46399;-77
2023/06/21 14:33:35;;;;;;;;;3.00;3.00;;;;;31.13;41.85;101510.75;5010407;28;45495;-78
2023/06/21 14:36:04;;;;;;;;;4.00;4.00;;;;;30.38;39.32;101437.09;5048440;28;45471;-77
2023/06/21 14:38:50;;;;;;;;;4.00;4.00;;;;;30.42;40.84;101453.97;5057323;28;45888;-77
2023/06/21 14:41:36;;;;;;;;;5.00;5.00;;;;;30.26;41.71;101446.78;5055872;28;45623;-78
2023/06/21 14:44:14;;;;;;;;;3.00;3.00;;;;;30.31;41.11;101451.66;5057568;28;45446;-77
2023/06/21 14:47:09;;;;;;;;;5.33;5.00;;;;;30.40;42.80;101502.44;5042279;28;45538;-78
2023/06/21 14:50:19;;;;;;;;;;;;;;;;;;;;;
2023/06/21 14:53:26;;;;;;;;;5.00;3.67;;;;;30.17;41.06;101480.59;4982096;28;73754;-80
2023/06/21 14:56:31;;;;;;;;;;;;;;;;;;;;;
2023/06/21 15:20:09;;;;;;;;;6.00;6.00;;;;;29.75;43.80;101474.75;4839260;29;45533;-79
2023/06/21 15:23:03;;;;;;;;;;;;;;;;;;;;;
2023/06/21 15:26:10;;;;;;;;;;;;;;;;;;;;;
2023/06/21 15:28:55;;;;;;;;;6.33;6.33;;;;;28.99;44.23;101401.91;4968358;28;72799;-79
2023/06/21 15:31:46;;;;;;;;;4.67;4.00;;;;;29.31;45.01;101450.84;4975382;28;46205;-79
2023/06/21 15:34:32;;;;;;;;;5.00;5.00;;;;;28.82;45.38;101397.56;5015432;28;45684;-79
2023/06/21 15:38:03;;;;;;;;;;;;;;;;;;;;;
2023/06/21 15:51:25;;;;;;;;;;;;;;;;;;;;;
2023/06/21 15:57:54;;;;;;;;;6.00;6.00;;;;;28.99;47.84;101452.81;5056933;28;45393;-79
2023/06/21 16:01:03;;;;;;;;;1.67;1.67;;;;;28.55;47.70;101382.47;5056713;28;45407;-78
2023/06/21 16:03:35;;;;;;;;;4.00;4.00;;;;;28.81;46.96;101410.31;5051045;28;46651;-79
2023/06/21 16:06:26;;;;;;;;;;;;;;;;;;;;;
2023/06/21 16:09:26;;;;;;;;;5.00;5.00;;;;;28.63;49.05;101379.72;5037032;28;74872;-78
2023/06/21 16:11:51;;;;;;;;;6.00;6.00;;;;;28.80;47.86;101400.44;5051649;28;45507;-78
2023/06/21 16:14:28;;;;;;;;;;;;;;;;;;;;;
2023/06/21 16:17:23;;;;;;;;;6.00;6.00;;;;;28.69;46.93;101389.09;5060982;28;72299;-78
2023/06/21 16:20:24;;;;;;;;;5.67;5.67;;;;;28.64;47.67;101389.56;5020066;28;46385;-80
2023/06/21 16:23:22;;;;;;;;;7.33;7.00;;;;;28.53;47.64;101384.53;5026367;28;45547;-80
2023/06/21 16:26:28;;;;;;;;;;;;;;;;;;;;;
2023/06/21 16:29:42;;;;;;;;;4.00;4.00;;;;;28.74;48.31;101443.88;5077734;28;72806;-80
2023/06/21 16:36:42;;;;;;;;;7.67;6.67;;;;;28.65;49.09;101434.00;4883148;28;45501;-81
2023/06/21 16:39:53;;;;;;;;;3.00;3.00;;;;;28.57;48.86;101437.56;4872836;29;45393;-81
2023/06/21 16:43:15;;;;;;;;;6.00;6.00;;;;;28.04;49.14;101350.25;4931635;28;45384;-79
2023/06/21 16:46:41;;;;;;;;;6.00;6.00;;;;;28.04;49.57;101350.25;4918500;28;46693;-79
2023/06/21 16:49:19;;;;;;;;;6.33;6.33;;;;;27.97;48.59;101350.09;4875050;28;46904;-78
2023/06/21 16:55:24;;;;;;;;;4.67;4.67;;;;;28.37;48.39;101426.22;4992375;28;46269;-78
2023/06/21 16:57:59;;;;;;;;;5.00;5.00;;;;;27.75;49.01;101331.72;5040349;28;47489;-83
2023/06/21 17:11:26;;;;;;;;;5.00;5.00;;;;;27.87;48.71;101336.69;5066245;28;45536;-84
2023/06/21 17:13:36;;;;;;;;;6.67;5.00;;;;;28.09;48.90;101359.63;5059363;28;45315;-83
2023/06/21 17:16:49;;;;;;;;;;;;;;;;;;;;;
2023/06/21 17:19:44;;;;;;;;;7.33;6.00;;;;;28.49;47.99;101431.31;5011551;28;71757;-83
2023/06/21 17:22:36;;;;;;;;;5.00;5.00;;;;;28.24;48.33;101425.88;5055589;28;46671;-84
2023/06/21 17:25:17;;;;;;;;;6.00;5.00;;;;;27.95;48.86;101363.00;5040798;28;45472;-83
2023/06/21 17:27:59;;;;;;;;;5.67;5.67;;;;;28.51;47.95;101434.69;5049498;28;45366;-84
2023/06/21 17:31:12;;;;;;;;;;;;;;;;;;;;;
2023/06/21 17:34:17;;;;;;;;;2.67;2.67;;;;;28.70;48.30;101437.06;5057718;28;75748;-82
2023/06/21 17:36:56;;;;;;;;;4.33;4.33;;;;;28.63;47.76;101438.78;5042712;28;45479;-81
2023/06/21 17:39:54;;;;;;;;;5.00;5.00;;;;;28.54;48.29;101439.78;5032368;28;45478;-81
2023/06/21 17:42:46;;;;;;;;;4.00;3.00;;;;;28.48;48.53;101451.38;5046530;28;45491;-81
2023/06/21 17:45:29;;;;;;;;;6.00;5.33;;;;;28.45;49.46;101452.56;5038509;28;45920;-81
2023/06/21 17:48:22;;;;;;;;;5.33;5.33;;;;;28.15;48.18;101401.59;5052988;28;46148;-81
2023/06/21 17:51:15;;;;;;;;;5.00;3.67;;;;;28.39;49.55;101436.94;5064462;28;45618;-81
2023/06/21 17:53:59;;;;;;;;;4.00;2.33;;;;;28.32;48.61;101455.81;5057768;28;45411;-82
2023/06/21 17:56:57;;;;;;;;;3.67;3.67;;;;;28.21;49.21;101442.56;5043887;28;46947;-82
2023/06/21 18:00:04;;;;;;;;;;;;;;;;;;;;;
2023/06/21 18:04:09;;;;;;;;;;;;;;;;;;;;;
2023/06/21 18:07:14;;;;;;;;;;;;;;;;;;;;;
2023/06/21 18:10:17;;;;;;;;;5.67;4.00;;;;;27.86;49.46;101416.53;5039316;28;75696;-82
2023/06/21 18:13:23;;;;;;;;;;;;;;;;;;;;;
2023/06/21 18:16:05;;;;;;;;;2.00;2.00;;;;;27.48;50.09;101370.13;5052443;28;67988;-81
2023/06/21 18:22:25;;;;;;;;;;;;;;;;;;;;;
2023/06/21 18:25:57;;;;;;;;;;;;;;;;;;;;;
2023/06/21 18:29:02;;;;;;;;;4.00;4.00;;;;;27.36;50.84;101443.75;5055411;28;45562;-84
2023/06/21 18:32:15;;;;;;;;;5.00;5.00;;;;;27.21;51.11;101423.69;5039258;28;45636;-84
2023/06/21 18:35:18;;;;;;;;;5.00;3.00;;;;;26.92;50.48;101390.66;5032974;28;46249;-84
2023/06/21 18:37:57;;;;;;;;;4.00;4.00;;;;;26.72;50.67;101378.31;4961091;28;45455;-84
2023/06/21 18:41:02;;;;;;;;;;;;;;;;;;;;;
2023/06/21 18:43:51;;;;;;;;;2.67;2.33;;;;;26.90;52.44;101428.81;5058777;28;72116;-84
2023/06/21 18:46:37;;;;;;;;;4.00;3.00;;;;;27.05;51.85;101468.94;5034774;28;45618;-84
2023/06/21 18:49:20;;;;;;;;;3.33;3.33;;;;;26.64;51.91;101391.84;5026112;28;45452;-84
2023/06/21 18:55:11;;;;;;;;;3.00;2.00;;;;;26.42;52.43;101377.81;4993955;28;45314;-83
2023/06/21 18:58:26;;;;;;;;;;;;;;;;;;;;;
2023/06/21 19:01:46;;;;;;;;;4.00;3.00;;;;;26.39;52.59;101388.16;5017315;28;72297;-82
2023/06/21 19:07:53;;;;;;;;;4.00;4.00;;;;;26.33;53.09;101389.66;5055385;28;45984;-84
2023/06/21 19:14:25;;;;;;;;;2.00;2.00;;;;;26.73;53.66;101465.00;5054290;28;45342;-83
2023/06/21 19:17:35;;;;;;;;;2.00;2.00;;;;;26.66;53.87;101463.09;5057857;28;45524;-83
2023/06/21 19:20:44;;;;;;;;;;;;;;;;;;;;;
2023/06/21 19:23:43;;;;;;;;;4.00;3.00;;;;;25.94;54.25;101384.75;5055069;28;75146;-84
2023/06/21 19:26:35;;;;;;;;;;;;;;;;;;;;;
2023/06/21 19:29:52;;;;;;;;;2.00;2.00;;;;;26.43;55.04;101492.63;5031842;28;67831;-83
2023/06/21 19:43:09;;;;;;;;;;;;;;;;;;;;;
2023/06/21 19:46:09;;;;;;;;;3.00;3.00;;;;;25.45;56.72;101369.88;5038701;28;71975;-84
2023/06/21 19:49:18;;;;;;;;;4.00;2.00;;;;;25.50;58.43;101392.81;5037936;28;45879;-84
2023/06/21 19:52:09;;;;;;;;;;;;;;;;;;;;;
2023/06/21 19:55:18;;;;;;;;;1.67;1.00;;;;;25.42;58.46;101388.13;5052709;28;67987;-84
2023/06/21 19:58:04;;;;;;;;;1.00;1.00;;;;;25.87;58.66;101482.09;5006814;28;45329;-84
2023/06/21 20:01:01;;;;;;;;;5.00;3.00;;;;;25.27;59.50;101394.22;5025297;28;45681;-84
2023/06/21 20:07:28;;;;;;;;;2.00;2.00;;;;;25.15;59.95;101396.31;5046207;28;45448;-85
2023/06/21 20:10:17;;;;;;;;;2.00;2.00;;;;;25.66;60.14;101481.53;5052280;28;45520;-83
2023/06/21 20:13:33;;;;;;;;;2.00;2.00;;;;;24.95;60.56;101383.03;5050948;28;45697;-85
2023/06/21 20:20:07;;;;;;;;;;;;;;;;;;;;;
2023/06/21 20:23:19;;;;;;;;;1.67;1.67;;;;;24.99;61.73;101415.06;5066898;28;71957;-83
2023/06/21 20:26:09;;;;;;;;;5.67;3.67;;;;;24.82;61.79;101407.75;4956014;28;46779;-85
2023/06/21 20:28:45;;;;;;;;;3.00;2.00;;;;;25.07;62.09;101454.91;4963410;28;45434;-82
2023/06/21 20:31:38;;;;;;;;;2.00;2.00;;;;;25.21;63.35;101493.19;5063436;28;45510;-82